Time;durP1;ratioP1;P1;durP2;ratioP2;P2;SDS_P1;SDS_P2;PMS_P1;PMS_P2;Temp;Humidity;BMP_temperature;BMP_pressure;BME280_temperature;BME280_humidity;BME280_pressure;Samples;Min_cycle;Max_cycle;Signal;HPM_P1;HPM_P2
2023/01/10 00:00:44;;;;;;;;;;;7.10;88.30;;;;;;5013004;28;19913;-31
2023/01/10 00:03:10;;;;;;;;;;;7.10;88.40;;;;;;5012683;28;19920;-29
2023/01/10 00:05:36;;;;;;;;;;;7.00;88.50;;;;;;5012834;28;19918;-30
2023/01/10 00:08:02;;;;;;;;;;;7.00;88.40;;;;;;5012774;28;20008;-28
2023/01/10 00:10:28;;;;;;;;;;;7.00;88.50;;;;;;5012650;28;19917;-29
2023/01/10 00:15:38;;;;;;;;;;;6.90;88.60;;;;;;5012488;28;19936;-29
2023/01/10 00:18:03;;;;;;;;;;;6.90;88.40;;;;;;5012802;28;19917;-29
2023/01/10 00:20:29;;;;;;;;;;;7.00;88.30;;;;;;5012442;28;19917;-29
2023/01/10 00:22:54;;;;;;;;;;;7.00;88.30;;;;;;5012392;28;19920;-34
2023/01/10 00:25:20;;;;;;;;;;;7.00;88.00;;;;;;5012601;28;19913;-29
2023/01/10 00:27:52;;;;;;;;;;;7.00;88.00;;;;;;5012359;28;19918;-30
2023/01/10 00:30:18;;;;;;;;;;;7.00;88.00;;;;;;5012623;28;19917;-28
2023/01/10 00:32:44;;;;;;;;;;;7.00;87.90;;;;;;5012206;28;20369;-29
2023/01/10 00:35:10;;;;;;;;;;;7.00;87.80;;;;;;5012477;28;20400;-29
2023/01/10 00:37:36;;;;;;;;;;;7.00;87.90;;;;;;5012368;28;19918;-29
2023/01/10 00:40:01;;;;;;;;;;;6.90;87.90;;;;;;5012435;28;19937;-29
2023/01/10 00:45:11;;;;;;;;;;;6.80;87.90;;;;;;5012087;28;19968;-28
2023/01/10 00:47:36;;;;;;;;;;;6.80;87.90;;;;;;5012167;28;20328;-30
2023/01/10 00:50:04;;;;;;;;;;;6.80;88.00;;;;;;5012048;28;19917;-28
2023/01/10 00:52:30;;;;;;;;;;;6.80;88.00;;;;;;5011988;28;19913;-29
2023/01/10 00:54:55;;;;;;;;;;;6.80;88.10;;;;;;5011982;28;19913;-35
2023/01/10 00:57:21;;;;;;;;;;;6.70;88.00;;;;;;5012365;28;19913;-34
2023/01/10 00:59:46;;;;;;;;;;;6.80;88.10;;;;;;5012035;28;19920;-30
2023/01/10 01:02:12;;;;;;;;;;;6.80;88.10;;;;;;5012046;28;19967;-29
2023/01/10 01:04:38;;;;;;;;;;;6.80;88.00;;;;;;5011793;28;20000;-28
2023/01/10 01:07:04;;;;;;;;;;;6.80;88.00;;;;;;5012043;28;20376;-34
2023/01/10 01:09:29;;;;;;;;;;;6.80;88.10;;;;;;5011931;28;20064;-28
2023/01/10 01:11:55;;;;;;;;;;;6.80;88.20;;;;;;4994061;28;19917;-29
2023/01/10 01:14:21;;;;;;;;;;;6.80;88.10;;;;;;5012122;28;19964;-28
2023/01/10 01:16:46;;;;;;;;;;;6.80;88.10;;;;;;5011827;28;19914;-31
2023/01/10 01:19:12;;;;;;;;;;;6.80;88.10;;;;;;5011887;28;19920;-29
2023/01/10 01:21:37;;;;;;;;;;;6.90;88.10;;;;;;5012038;28;20012;-29
2023/01/10 01:24:03;;;;;;;;;;;6.80;88.00;;;;;;5012191;28;19913;-29
2023/01/10 01:26:28;;;;;;;;;;;6.80;88.20;;;;;;5014764;28;19914;-28
2023/01/10 01:28:54;;;;;;;;;;;6.80;88.30;;;;;;5015738;28;20435;-28
2023/01/10 01:31:19;;;;;;;;;;;6.80;88.40;;;;;;5015816;28;19925;-31
2023/01/10 01:33:45;;;;;;;;;;;6.80;88.40;;;;;;5015380;28;20349;-30
2023/01/10 01:36:11;;;;;;;;;;;6.80;88.40;;;;;;5015819;28;19920;-29
2023/01/10 01:38:37;;;;;;;;;;;6.80;88.30;;;;;;4997733;28;20369;-31
2023/01/10 01:41:03;;;;;;;;;;;6.90;88.30;;;;;;5015489;28;20381;-34
2023/01/10 01:43:30;;;;;;;;;;;6.90;88.20;;;;;;5015374;28;19935;-29
2023/01/10 01:46:01;;;;;;;;;;;6.90;88.20;;;;;;5015569;28;19922;-41
2023/01/10 01:48:32;;;;;;;;;;;6.90;88.10;;;;;;5015213;28;19914;-29
2023/01/10 01:51:04;;;;;;;;;;;6.90;88.10;;;;;;5015204;28;19921;-28
2023/01/10 01:53:41;;;;;;;;;;;6.90;88.10;;;;;;5015502;28;20289;-29
2023/01/10 01:56:11;;;;;;;;;;;6.80;88.00;;;;;;5015379;28;20388;-29
2023/01/10 01:58:42;;;;;;;;;;;6.80;88.10;;;;;;5015357;28;20004;-42
2023/01/10 02:01:09;;;;;;;;;;;6.70;88.10;;;;;;5015168;28;20008;-31
2023/01/10 02:03:34;;;;;;;;;;;6.60;88.00;;;;;;5015007;28;20021;-31
2023/01/10 02:06:00;;;;;;;;;;;6.60;88.20;;;;;;5014807;28;19949;-27
2023/01/10 02:08:25;;;;;;;;;;;6.60;88.20;;;;;;5015223;28;19917;-31
2023/01/10 02:11:01;;;;;;;;;;;6.50;88.30;;;;;;5014692;28;20284;-29
2023/01/10 02:13:27;;;;;;;;;;;6.50;88.40;;;;;;5014426;28;19914;-29
2023/01/10 02:15:52;;;;;;;;;;;6.40;88.40;;;;;;4996936;28;19921;-27
2023/01/10 02:18:20;;;;;;;;;;;6.40;88.40;;;;;;5014627;28;19952;-28
2023/01/10 02:20:48;;;;;;;;;;;6.40;88.40;;;;;;5014950;28;19918;-28
2023/01/10 02:23:25;;;;;;;;;;;6.40;88.50;;;;;;5014888;28;19963;-28
2023/01/10 02:26:10;;;;;;;;;;;6.40;88.40;;;;;;5014465;28;19944;-30
2023/01/10 02:28:41;;;;;;;;;;;6.40;88.40;;;;;;5014437;28;19932;-27
2023/01/10 02:31:25;;;;;;;;;;;6.40;88.50;;;;;;5014480;28;20297;-30
2023/01/10 02:34:01;;;;;;;;;;;6.50;88.50;;;;;;5013977;28;19945;-30
2023/01/10 02:36:26;;;;;;;;;;;6.50;88.40;;;;;;5014070;28;20293;-29
2023/01/10 02:39:12;;;;;;;;;;;6.60;88.30;;;;;;5014493;28;19920;-28
2023/01/10 02:41:40;;;;;;;;;;;6.60;88.30;;;;;;5013488;28;19944;-28
2023/01/10 02:44:12;;;;;;;;;;;6.70;88.20;;;;;;5014153;28;19913;-29
2023/01/10 02:46:38;;;;;;;;;;;6.70;88.10;;;;;;5014063;28;20340;-35
2023/01/10 02:49:03;;;;;;;;;;;6.80;88.10;;;;;;5013898;28;20020;-29
2023/01/10 02:51:32;;;;;;;;;;;6.80;88.10;;;;;;5013654;28;20012;-33
2023/01/10 02:54:03;;;;;;;;;;;6.90;88.10;;;;;;5014018;28;19918;-30
2023/01/10 02:56:35;;;;;;;;;;;6.90;88.10;;;;;;5013963;28;20025;-28
2023/01/10 02:59:10;;;;;;;;;;;6.90;88.10;;;;;;5013893;28;19913;-32
2023/01/10 03:01:39;;;;;;;;;;;6.90;88.00;;;;;;5013701;28;19917;-29
2023/01/10 03:04:30;;;;;;;;;;;7.00;88.10;;;;;;5013649;28;19921;-27
2023/01/10 03:07:14;;;;;;;;;;;7.00;88.00;;;;;;4990333;28;19971;-28
2023/01/10 03:09:55;;;;;;;;;;;7.00;88.10;;;;;;5013263;28;20005;-35
2023/01/10 03:12:39;;;;;;;;;;;7.00;88.10;;;;;;5013392;28;19968;-35
2023/01/10 03:15:05;;;;;;;;;;;7.00;88.10;;;;;;5013326;28;19914;-28
2023/01/10 03:17:30;;;;;;;;;;;6.90;88.20;;;;;;5013122;28;19945;-44
2023/01/10 03:19:58;;;;;;;;;;;6.90;88.20;;;;;;5013222;28;20027;-29
2023/01/10 03:22:24;;;;;;;;;;;6.90;88.30;;;;;;5013372;28;20385;-27
2023/01/10 03:24:52;;;;;;;;;;;7.00;88.40;;;;;;5013263;28;19914;-28
2023/01/10 03:27:20;;;;;;;;;;;7.00;89.00;;;;;;5013007;28;19921;-29
2023/01/10 03:30:04;;;;;;;;;;;7.00;88.40;;;;;;5012866;28;20023;-30
2023/01/10 03:32:30;;;;;;;;;;;7.00;88.40;;;;;;5012662;28;19921;-28
2023/01/10 03:34:57;;;;;;;;;;;7.00;88.40;;;;;;5013059;28;19928;-27
2023/01/10 03:37:44;;;;;;;;;;;7.00;88.30;;;;;;4995279;28;19956;-31
2023/01/10 03:40:13;;;;;;;;;;;6.90;88.30;;;;;;5012755;28;19972;-30
2023/01/10 03:45:43;;;;;;;;;;;7.00;88.40;;;;;;5012767;28;19921;-29
2023/01/10 03:48:10;;;;;;;;;;;7.00;88.40;;;;;;5012091;28;19968;-30
2023/01/10 03:50:36;;;;;;;;;;;7.00;88.40;;;;;;5012830;28;19928;-28
2023/01/10 03:53:02;;;;;;;;;;;7.00;88.40;;;;;;5012917;28;19953;-28
2023/01/10 03:55:28;;;;;;;;;;;6.90;88.40;;;;;;5012815;28;20047;-28
2023/01/10 03:57:54;;;;;;;;;;;6.90;88.60;;;;;;5012726;28;20443;-30
2023/01/10 04:00:19;;;;;;;;;;;6.90;88.60;;;;;;4994669;28;19976;-32
2023/01/10 04:02:45;;;;;;;;;;;6.90;88.60;;;;;;5012365;28;19913;-28
2023/01/10 04:05:11;;;;;;;;;;;6.90;88.70;;;;;;5012331;28;19920;-28
2023/01/10 04:07:36;;;;;;;;;;;6.90;88.60;;;;;;5012534;28;19936;-29
2023/01/10 04:10:02;;;;;;;;;;;6.90;88.60;;;;;;5012157;28;19922;-29
2023/01/10 04:12:28;;;;;;;;;;;7.00;88.60;;;;;;5012165;28;19964;-31
2023/01/10 04:14:53;;;;;;;;;;;7.00;88.70;;;;;;5012301;28;20369;-30
2023/01/10 04:17:19;;;;;;;;;;;7.00;88.60;;;;;;5012211;28;19913;-36
2023/01/10 04:19:44;;;;;;;;;;;7.00;88.50;;;;;;5012573;28;20004;-28
2023/01/10 04:22:10;;;;;;;;;;;7.00;88.50;;;;;;5012810;28;20035;-27
2023/01/10 04:24:36;;;;;;;;;;;6.90;88.60;;;;;;5012715;28;19928;-30
2023/01/10 04:27:02;;;;;;;;;;;6.90;88.70;;;;;;5012758;28;19913;-29
2023/01/10 04:29:27;;;;;;;;;;;6.90;89.40;;;;;;5012422;28;19913;-28
2023/01/10 04:31:53;;;;;;;;;;;6.90;88.80;;;;;;5012327;28;19922;-29
2023/01/10 04:34:19;;;;;;;;;;;6.90;88.80;;;;;;5012606;28;19921;-32
2023/01/10 04:36:45;;;;;;;;;;;7.00;89.40;;;;;;5012486;28;19914;-35
2023/01/10 04:39:10;;;;;;;;;;;7.00;88.80;;;;;;5012091;28;19920;-29
2023/01/10 04:41:36;;;;;;;;;;;6.90;88.80;;;;;;5012315;28;20008;-28
2023/01/10 04:44:01;;;;;;;;;;;7.00;88.80;;;;;;5012403;28;19921;-30
2023/01/10 04:46:27;;;;;;;;;;;6.90;88.80;;;;;;5012160;28;19914;-28
2023/01/10 04:48:52;;;;;;;;;;;6.90;88.80;;;;;;5012107;28;19991;-31
2023/01/10 04:51:18;;;;;;;;;;;6.90;88.80;;;;;;5012369;28;20008;-28
2023/01/10 04:53:43;;;;;;;;;;;6.90;89.00;;;;;;5012068;28;19920;-39
2023/01/10 04:56:13;;;;;;;;;;;6.90;89.00;;;;;;5012208;28;19917;-28
2023/01/10 04:58:39;;;;;;;;;;;6.90;89.00;;;;;;5012180;28;19921;-29
2023/01/10 05:01:09;;;;;;;;;;;6.90;89.10;;;;;;5011059;28;19913;-31
2023/01/10 05:03:34;;;;;;;;;;;6.80;89.00;;;;;;5011926;28;19913;-28
2023/01/10 05:06:00;;;;;;;;;;;6.80;89.10;;;;;;4994206;28;19913;-28
2023/01/10 05:08:27;;;;;;;;;;;6.80;89.10;;;;;;5011923;28;20276;-28
2023/01/10 05:10:52;;;;;;;;;;;6.80;89.20;;;;;;5012445;28;19956;-28
2023/01/10 05:13:18;;;;;;;;;;;6.80;89.20;;;;;;5011685;28;20498;-31
2023/01/10 05:15:43;;;;;;;;;;;6.80;89.20;;;;;;5011936;28;19913;-29
2023/01/10 05:18:09;;;;;;;;;;;6.80;89.20;;;;;;5011831;28;19920;-31
2023/01/10 05:20:34;;;;;;;;;;;6.80;89.20;;;;;;5011993;28;19921;-28
2023/01/10 05:23:00;;;;;;;;;;;6.80;89.10;;;;;;5011741;28;19914;-30
2023/01/10 05:25:25;;;;;;;;;;;6.90;89.20;;;;;;5012046;28;20300;-29
2023/01/10 05:27:51;;;;;;;;;;;6.90;89.20;;;;;;5012113;28;19913;-29
2023/01/10 05:30:16;;;;;;;;;;;6.90;89.20;;;;;;5011680;28;20372;-30
2023/01/10 05:32:42;;;;;;;;;;;6.90;89.20;;;;;;5011579;28;20416;-43
2023/01/10 05:35:08;;;;;;;;;;;6.90;89.20;;;;;;5011663;28;19984;-28
2023/01/10 05:37:33;;;;;;;;;;;6.90;89.20;;;;;;5011562;28;19913;-31
2023/01/10 05:39:59;;;;;;;;;;;7.00;89.20;;;;;;5011766;28;19921;-28
2023/01/10 05:42:24;;;;;;;;;;;7.00;89.20;;;;;;4993896;28;20284;-29
2023/01/10 05:44:50;;;;;;;;;;;7.00;89.20;;;;;;5011458;28;20288;-29
2023/01/10 05:47:15;;;;;;;;;;;7.00;89.20;;;;;;5011643;28;19917;-28
2023/01/10 05:49:40;;;;;;;;;;;7.00;89.20;;;;;;5011634;28;20442;-29
2023/01/10 05:52:06;;;;;;;;;;;7.00;89.20;;;;;;5011472;28;19917;-28
2023/01/10 05:54:31;;;;;;;;;;;7.00;89.20;;;;;;5011858;28;20056;-28
2023/01/10 05:56:57;;;;;;;;;;;7.00;89.10;;;;;;4993818;28;19917;-28
2023/01/10 05:59:22;;;;;;;;;;;7.00;89.10;;;;;;5011840;28;20401;-29
2023/01/10 06:01:48;;;;;;;;;;;7.00;89.20;;;;;;5011848;28;19910;-32
2023/01/10 06:04:13;;;;;;;;;;;7.00;89.20;;;;;;5011517;28;20285;-30
2023/01/10 06:06:39;;;;;;;;;;;7.00;89.20;;;;;;5011550;28;19916;-28
2023/01/10 06:09:04;;;;;;;;;;;7.00;89.20;;;;;;5011524;28;19964;-43
2023/01/10 06:11:30;;;;;;;;;;;7.00;89.20;;;;;;5012612;28;20381;-31
2023/01/10 06:13:56;;;;;;;;;;;7.10;89.20;;;;;;5014956;28;19914;-28
2023/01/10 06:16:21;;;;;;;;;;;7.10;89.00;;;;;;5014853;28;19910;-33
2023/01/10 06:18:47;;;;;;;;;;;7.10;89.00;;;;;;5014919;28;19909;-29
2023/01/10 06:21:12;;;;;;;;;;;7.10;89.00;;;;;;5014808;28;20381;-30
2023/01/10 06:23:38;;;;;;;;;;;7.10;89.00;;;;;;5014661;28;20008;-31
2023/01/10 06:26:04;;;;;;;;;;;7.10;88.90;;;;;;5014721;28;19909;-30
2023/01/10 06:28:29;;;;;;;;;;;7.10;88.80;;;;;;5014637;28;20405;-31
2023/01/10 06:30:55;;;;;;;;;;;7.10;88.80;;;;;;5014901;28;20020;-29
2023/01/10 06:33:20;;;;;;;;;;;7.00;88.80;;;;;;4996875;28;20396;-33
2023/01/10 06:35:47;;;;;;;;;;;7.00;88.80;;;;;;5014541;28;19975;-30
2023/01/10 06:38:13;;;;;;;;;;;7.00;88.90;;;;;;5014563;28;20354;-32
2023/01/10 06:40:38;;;;;;;;;;;7.00;88.90;;;;;;5014592;28;20254;-40
2023/01/10 06:43:04;;;;;;;;;;;7.00;88.80;;;;;;5014444;28;19925;-30
2023/01/10 06:45:29;;;;;;;;;;;7.00;88.80;;;;;;5014465;28;19932;-32
2023/01/10 06:47:55;;;;;;;;;;;7.00;88.80;;;;;;5014552;28;19960;-30
2023/01/10 06:50:20;;;;;;;;;;;7.00;88.80;;;;;;5014268;28;19968;-29
2023/01/10 06:52:53;;;;;;;;;;;7.00;88.80;;;;;;5014182;28;19913;-29
2023/01/10 06:55:19;;;;;;;;;;;7.00;88.70;;;;;;5014245;28;19909;-29
2023/01/10 06:57:44;;;;;;;;;;;7.00;88.80;;;;;;4996224;28;19910;-29
2023/01/10 07:00:10;;;;;;;;;;;7.10;88.80;;;;;;5014068;28;19916;-29
2023/01/10 07:02:36;;;;;;;;;;;7.10;88.70;;;;;;5013919;28;19960;-30
2023/01/10 07:05:01;;;;;;;;;;;7.10;88.70;;;;;;4996326;28;19909;-30
2023/01/10 07:07:27;;;;;;;;;;;7.10;88.60;;;;;;5014071;28;19909;-29
2023/01/10 07:09:52;;;;;;;;;;;7.10;88.60;;;;;;5013913;28;20400;-30
2023/01/10 07:12:18;;;;;;;;;;;7.10;88.60;;;;;;5014009;28;19916;-31
2023/01/10 07:14:43;;;;;;;;;;;7.10;88.70;;;;;;5014194;28;19916;-30
2023/01/10 07:17:09;;;;;;;;;;;7.10;88.60;;;;;;5013890;28;19967;-31
2023/01/10 07:19:34;;;;;;;;;;;7.10;88.60;;;;;;5013818;28;20285;-41
2023/01/10 07:22:00;;;;;;;;;;;7.10;88.60;;;;;;5013632;28;19952;-30
2023/01/10 07:24:25;;;;;;;;;;;7.10;88.60;;;;;;5012909;28;19913;-32
2023/01/10 07:26:53;;;;;;;;;;;7.20;88.60;;;;;;5014058;28;19911;-30
2023/01/10 07:29:18;;;;;;;;;;;7.20;88.60;;;;;;5013722;28;19914;-31
2023/01/10 07:31:44;;;;;;;;;;;7.20;88.50;;;;;;5013322;28;19913;-32
2023/01/10 07:34:09;;;;;;;;;;;7.20;88.50;;;;;;5013607;28;20008;-30
2023/01/10 07:36:36;;;;;;;;;;;7.20;88.40;;;;;;5013502;28;19913;-29
2023/01/10 07:39:01;;;;;;;;;;;7.10;88.40;;;;;;5013591;28;19913;-31
2023/01/10 07:41:27;;;;;;;;;;;7.10;88.40;;;;;;5013735;28;19980;-30
2023/01/10 07:43:52;;;;;;;;;;;7.20;88.50;;;;;;5013383;28;19910;-29
2023/01/10 07:46:18;;;;;;;;;;;7.20;88.50;;;;;;5013414;28;19960;-28
2023/01/10 07:48:45;;;;;;;;;;;7.20;88.50;;;;;;5013321;28;19916;-31
2023/01/10 07:51:11;;;;;;;;;;;7.20;88.50;;;;;;5013189;28;19917;-32
2023/01/10 07:53:36;;;;;;;;;;;7.20;88.50;;;;;;5013299;28;19913;-29
2023/01/10 07:56:02;;;;;;;;;;;7.20;88.50;;;;;;5013493;28;19910;-30
2023/01/10 07:58:28;;;;;;;;;;;7.20;88.40;;;;;;5013209;28;20392;-31
2023/01/10 08:01:01;;;;;;;;;;;7.20;88.40;;;;;;5013121;28;20452;-38
2023/01/10 08:03:28;;;;;;;;;;;7.10;88.30;;;;;;5013019;28;19910;-32
2023/01/10 08:05:58;;;;;;;;;;;7.10;88.40;;;;;;5013300;28;19909;-33
2023/01/10 08:08:23;;;;;;;;;;;7.20;88.40;;;;;;5013114;28;19913;-30
2023/01/10 08:10:49;;;;;;;;;;;7.20;88.30;;;;;;5013284;28;19914;-31
2023/01/10 08:13:14;;;;;;;;;;;7.20;88.20;;;;;;5013054;28;19916;-30
2023/01/10 08:15:39;;;;;;;;;;;7.20;88.20;;;;;;5012841;28;19910;-29
2023/01/10 08:18:05;;;;;;;;;;;7.20;88.80;;;;;;5012797;28;19910;-32
2023/01/10 08:20:30;;;;;;;;;;;7.20;88.10;;;;;;5013165;28;19910;-30
2023/01/10 08:22:59;;;;;;;;;;;7.30;88.10;;;;;;5012639;28;19909;-34
2023/01/10 08:25:25;;;;;;;;;;;7.30;87.90;;;;;;5012884;28;19916;-32
2023/01/10 08:27:50;;;;;;;;;;;7.20;87.80;;;;;;5012938;28;19910;-31
2023/01/10 08:30:16;;;;;;;;;;;7.30;87.90;;;;;;5012537;28;19920;-31
2023/01/10 08:32:41;;;;;;;;;;;7.30;87.90;;;;;;4993518;28;19986;-28
2023/01/10 08:35:07;;;;;;;;;;;7.30;87.70;;;;;;5012475;28;19909;-32
2023/01/10 08:37:34;;;;;;;;;;;7.30;87.70;;;;;;4995113;28;19910;-31
2023/01/10 08:39:59;;;;;;;;;;;7.30;87.70;;;;;;5012727;28;19909;-30
2023/01/10 08:42:25;;;;;;;;;;;7.30;87.70;;;;;;5012503;28;20383;-33
2023/01/10 08:44:50;;;;;;;;;;;7.30;87.70;;;;;;5012493;28;19910;-39
2023/01/10 08:47:15;;;;;;;;;;;7.40;87.70;;;;;;5012721;28;19928;-30
2023/01/10 08:49:41;;;;;;;;;;;7.40;87.70;;;;;;5012338;28;20013;-29
2023/01/10 08:52:06;;;;;;;;;;;7.40;87.60;;;;;;5012332;28;19913;-30
2023/01/10 08:54:32;;;;;;;;;;;7.50;87.60;;;;;;5012461;28;19909;-34
2023/01/10 08:56:58;;;;;;;;;;;7.50;87.50;;;;;;5012437;28;19913;-30
2023/01/10 08:59:23;;;;;;;;;;;7.50;87.40;;;;;;5012228;28;19956;-37
2023/01/10 09:01:49;;;;;;;;;;;7.60;87.30;;;;;;5012238;28;19909;-32
2023/01/10 09:04:14;;;;;;;;;;;7.60;87.20;;;;;;5012304;28;19910;-32
2023/01/10 09:06:40;;;;;;;;;;;7.70;87.20;;;;;;5012462;28;19956;-29
2023/01/10 09:09:05;;;;;;;;;;;7.70;87.10;;;;;;5012393;28;19909;-36
2023/01/10 09:11:31;;;;;;;;;;;7.70;86.90;;;;;;5012106;28;20015;-35
2023/01/10 09:13:56;;;;;;;;;;;7.70;86.90;;;;;;4994560;28;19914;-30
2023/01/10 09:16:22;;;;;;;;;;;7.60;86.70;;;;;;5012340;28;20026;-36
2023/01/10 09:18:48;;;;;;;;;;;7.60;86.80;;;;;;5011992;28;19917;-37
2023/01/10 09:21:13;;;;;;;;;;;7.60;86.90;;;;;;5012103;28;19916;-34
2023/01/10 09:23:39;;;;;;;;;;;7.60;86.90;;;;;;5012191;28;19910;-38
2023/01/10 09:26:04;;;;;;;;;;;7.60;86.80;;;;;;5011927;28;19910;-36
2023/01/10 09:28:30;;;;;;;;;;;7.60;86.80;;;;;;5012092;28;19909;-36
2023/01/10 09:30:56;;;;;;;;;;;7.60;86.80;;;;;;5011741;28;19917;-31
2023/01/10 09:33:21;;;;;;;;;;;7.60;86.70;;;;;;5011841;28;19928;-31
2023/01/10 09:35:47;;;;;;;;;;;7.60;86.60;;;;;;5012056;28;19909;-30
2023/01/10 09:38:17;;;;;;;;;;;7.60;86.50;;;;;;5011862;28;20369;-36
2023/01/10 09:41:01;;;;;;;;;;;7.60;86.50;;;;;;5011940;28;19948;-40
2023/01/10 09:43:45;;;;;;;;;;;7.60;86.60;;;;;;5011828;28;19910;-31
2023/01/10 09:46:20;;;;;;;;;;;7.70;86.60;;;;;;5012643;28;19910;-30
2023/01/10 09:48:51;;;;;;;;;;;7.60;86.50;;;;;;5015407;28;19909;-30
2023/01/10 09:51:27;;;;;;;;;;;7.70;86.50;;;;;;5015363;28;20020;-29
2023/01/10 09:53:54;;;;;;;;;;;7.70;86.40;;;;;;5015487;28;19916;-32
2023/01/10 09:56:20;;;;;;;;;;;7.70;86.40;;;;;;5015742;28;19910;-31
2023/01/10 09:58:46;;;;;;;;;;;7.70;86.40;;;;;;4997630;28;19935;-31
2023/01/10 10:01:17;;;;;;;;;;;7.70;86.30;;;;;;5015658;28;19917;-30
2023/01/10 10:03:54;;;;;;;;;;;7.80;86.40;;;;;;5015262;28;19947;-37
2023/01/10 10:06:21;;;;;;;;;;;7.80;86.40;;;;;;5015270;28;20333;-33
2023/01/10 10:08:47;;;;;;;;;;;7.80;86.40;;;;;;5015408;28;19986;-30
2023/01/10 10:11:29;;;;;;;;;;;7.70;86.20;;;;;;5015391;28;20373;-33
2023/01/10 10:14:04;;;;;;;;;;;7.80;86.10;;;;;;5015201;28;19956;-30
2023/01/10 10:16:41;;;;;;;;;;;7.70;86.10;;;;;;5015389;28;20258;-29
2023/01/10 10:19:16;;;;;;;;;;;7.70;86.00;;;;;;5015032;28;19910;-30
2023/01/10 10:21:59;;;;;;;;;;;7.70;86.00;;;;;;5014858;28;19979;-29
2023/01/10 10:24:28;;;;;;;;;;;7.70;85.90;;;;;;5015108;28;20004;-31
2023/01/10 10:26:58;;;;;;;;;;;7.60;85.80;;;;;;5014991;28;19952;-38
2023/01/10 10:29:32;;;;;;;;;;;7.60;85.90;;;;;;5015149;28;20009;-30
2023/01/10 10:31:57;;;;;;;;;;;7.60;85.70;;;;;;5014821;28;19922;-30
2023/01/10 10:34:27;;;;;;;;;;;7.60;85.60;;;;;;5015048;28;19920;-29
2023/01/10 10:36:52;;;;;;;;;;;7.70;85.90;;;;;;5014686;28;19963;-35
2023/01/10 10:39:19;;;;;;;;;;;7.70;85.80;;;;;;5014559;28;20336;-30
2023/01/10 10:41:47;;;;;;;;;;;7.70;85.70;;;;;;5014509;28;19918;-29
2023/01/10 10:44:15;;;;;;;;;;;7.70;85.60;;;;;;5014589;28;19913;-40
2023/01/10 10:46:41;;;;;;;;;;;7.70;85.60;;;;;;4996828;28;19914;-29
2023/01/10 10:49:17;;;;;;;;;;;7.70;85.40;;;;;;5014437;28;19921;-31
2023/01/10 10:51:46;;;;;;;;;;;7.70;85.50;;;;;;5014659;28;19917;-36
2023/01/10 10:54:15;;;;;;;;;;;7.70;85.40;;;;;;5014613;28;20286;-30
2023/01/10 10:56:41;;;;;;;;;;;7.80;85.50;;;;;;5014479;28;19913;-30
2023/01/10 10:59:07;;;;;;;;;;;7.80;85.20;;;;;;5014229;28;19920;-44
2023/01/10 11:01:32;;;;;;;;;;;7.90;85.40;;;;;;5014211;28;19996;-30
2023/01/10 11:04:00;;;;;;;;;;;7.90;85.40;;;;;;5014158;28;20366;-28
2023/01/10 11:06:27;;;;;;;;;;;7.90;85.30;;;;;;5014307;28;19917;-29
2023/01/10 11:08:55;;;;;;;;;;;7.90;85.20;;;;;;5014052;28;19913;-35
2023/01/10 11:11:25;;;;;;;;;;;8.00;85.20;;;;;;5014237;28;20377;-31
2023/01/10 11:13:53;;;;;;;;;;;8.00;85.10;;;;;;5014062;28;19918;-29
2023/01/10 11:16:26;;;;;;;;;;;8.00;85.10;;;;;;5014208;28;19913;-37
2023/01/10 11:19:09;;;;;;;;;;;7.90;85.00;;;;;;5014514;28;19932;-29
2023/01/10 11:21:36;;;;;;;;;;;8.00;85.10;;;;;;5014054;28;20377;-32
2023/01/10 11:24:02;;;;;;;;;;;8.00;85.00;;;;;;5013902;28;19960;-32
2023/01/10 11:26:35;;;;;;;;;;;7.90;85.60;;;;;;5013848;28;19918;-35
2023/01/10 11:29:13;;;;;;;;;;;8.00;85.10;;;;;;5013639;28;19914;-35
2023/01/10 11:31:39;;;;;;;;;;;7.90;85.00;;;;;;5013620;28;19976;-30
2023/01/10 11:34:15;;;;;;;;;;;8.00;85.10;;;;;;5013270;28;19930;-39
2023/01/10 11:36:51;;;;;;;;;;;8.00;85.10;;;;;;5013634;28;20277;-31
2023/01/10 11:39:17;;;;;;;;;;;8.00;85.10;;;;;;5013584;28;19914;-30
2023/01/10 11:41:42;;;;;;;;;;;8.00;85.10;;;;;;5013354;28;20262;-33
2023/01/10 11:44:15;;;;;;;;;;;8.00;85.00;;;;;;5013523;28;20397;-37
2023/01/10 11:46:44;;;;;;;;;;;8.00;84.90;;;;;;5013258;28;19914;-31
2023/01/10 11:49:18;;;;;;;;;;;8.10;85.00;;;;;;5013385;28;19956;-29
2023/01/10 11:51:48;;;;;;;;;;;8.10;85.50;;;;;;5013287;28;19926;-29
2023/01/10 11:54:19;;;;;;;;;;;8.10;84.90;;;;;;5013076;28;19913;-30
2023/01/10 11:56:53;;;;;;;;;;;8.10;84.80;;;;;;5013027;28;20412;-31
2023/01/10 11:59:18;;;;;;;;;;;8.10;84.80;;;;;;4995292;28;20008;-29
2023/01/10 12:01:46;;;;;;;;;;;8.10;84.90;;;;;;5012898;28;20006;-30
2023/01/10 12:04:15;;;;;;;;;;;8.10;84.80;;;;;;5012794;28;20484;-29
2023/01/10 12:06:43;;;;;;;;;;;8.10;84.70;;;;;;5012734;28;19913;-29
2023/01/10 12:09:28;;;;;;;;;;;8.10;84.70;;;;;;5012362;28;20004;-29
2023/01/10 12:12:00;;;;;;;;;;;8.10;84.80;;;;;;5012711;28;19948;-30
2023/01/10 12:14:26;;;;;;;;;;;8.10;84.70;;;;;;5013021;28;20044;-29
2023/01/10 12:16:57;;;;;;;;;;;8.10;84.70;;;;;;5012712;28;19914;-29
2023/01/10 12:19:23;;;;;;;;;;;8.10;84.80;;;;;;5012827;28;19920;-30
2023/01/10 12:21:49;;;;;;;;;;;8.10;84.80;;;;;;5012890;28;19914;-31
2023/01/10 12:24:14;;;;;;;;;;;8.10;84.80;;;;;;4995393;28;19913;-30
2023/01/10 12:26:40;;;;;;;;;;;8.10;84.80;;;;;;5012631;28;19914;-29
2023/01/10 12:29:09;;;;;;;;;;;8.10;84.80;;;;;;5012541;28;19917;-31
2023/01/10 12:31:36;;;;;;;;;;;8.10;84.70;;;;;;5012444;28;19917;-29
2023/01/10 12:34:06;;;;;;;;;;;8.10;84.70;;;;;;5012331;28;19921;-31
2023/01/10 12:36:43;;;;;;;;;;;8.10;84.70;;;;;;5012446;28;19918;-30
2023/01/10 12:39:15;;;;;;;;;;;8.20;84.70;;;;;;5012220;28;19914;-29
2023/01/10 12:44:31;;;;;;;;;;;8.10;84.70;;;;;;5012446;28;20431;-29
2023/01/10 12:47:00;;;;;;;;;;;8.10;84.80;;;;;;5012500;28;19917;-31
2023/01/10 12:49:31;;;;;;;;;;;8.20;84.80;;;;;;5012323;28;19957;-34
2023/01/10 12:51:59;;;;;;;;;;;8.10;84.70;;;;;;5012149;28;20296;-43
2023/01/10 12:54:28;;;;;;;;;;;8.10;84.60;;;;;;5011994;28;19913;-29
2023/01/10 12:56:54;;;;;;;;;;;8.20;84.60;;;;;;5012132;28;19940;-32
2023/01/10 12:59:22;;;;;;;;;;;8.10;84.60;;;;;;5012060;28;20369;-32
2023/01/10 13:01:52;;;;;;;;;;;8.20;84.70;;;;;;5012000;28;19921;-28
2023/01/10 13:04:21;;;;;;;;;;;8.20;84.70;;;;;;5011890;28;19920;-31
2023/01/10 13:06:47;;;;;;;;;;;8.20;84.70;;;;;;5012120;28;20308;-32
2023/01/10 13:09:16;;;;;;;;;;;8.20;84.70;;;;;;5012310;28;19913;-35
2023/01/10 13:11:51;;;;;;;;;;;8.10;84.70;;;;;;5012095;28;19949;-31
2023/01/10 13:14:19;;;;;;;;;;;8.20;85.00;;;;;;5012133;28;19929;-29
2023/01/10 13:16:47;;;;;;;;;;;8.20;85.00;;;;;;5011855;28;19968;-34
2023/01/10 13:19:13;;;;;;;;;;;8.20;84.90;;;;;;5012062;28;20280;-28
2023/01/10 13:21:42;;;;;;;;;;;8.20;84.90;;;;;;5013439;28;19920;-28
2023/01/10 13:24:13;;;;;;;;;;;8.20;84.80;;;;;;5015795;28;19920;-29
2023/01/10 13:26:47;;;;;;;;;;;8.20;84.70;;;;;;5015725;28;19913;-30
2023/01/10 13:29:17;;;;;;;;;;;8.20;84.70;;;;;;5015905;28;19967;-38
2023/01/10 13:31:42;;;;;;;;;;;8.20;84.60;;;;;;5015545;28;19921;-30
2023/01/10 13:34:13;;;;;;;;;;;8.20;84.70;;;;;;5015422;28;19921;-30
2023/01/10 13:36:40;;;;;;;;;;;8.20;84.70;;;;;;5015750;28;20328;-32
2023/01/10 13:39:17;;;;;;;;;;;8.20;84.80;;;;;;5015709;28;19917;-28
2023/01/10 13:45:03;;;;;;;;;;;8.20;84.90;;;;;;5015285;28;20101;-28
2023/01/10 13:47:38;;;;;;;;;;;8.20;84.80;;;;;;5015611;28;20357;-29
2023/01/10 13:50:22;;;;;;;;;;;8.30;85.10;;;;;;5015262;28;20340;-33
2023/01/10 13:52:48;;;;;;;;;;;8.20;85.20;;;;;;5015292;28;19921;-28
2023/01/10 13:55:23;;;;;;;;;;;8.30;85.20;;;;;;5015417;28;19920;-31
2023/01/10 13:57:50;;;;;;;;;;;8.30;85.20;;;;;;5015379;28;19913;-30
2023/01/10 14:03:28;;;;;;;;;;;8.30;85.50;;;;;;5015512;28;19921;-28
2023/01/10 14:05:54;;;;;;;;;;;8.30;85.40;;;;;;5014949;28;20328;-29
2023/01/10 14:08:20;;;;;;;;;;;8.30;85.30;;;;;;5015483;28;19921;-30
2023/01/10 14:10:46;;;;;;;;;;;8.40;85.60;;;;;;5015086;28;19928;-29
2023/01/10 14:13:18;;;;;;;;;;;8.40;85.60;;;;;;5015225;28;20368;-27
2023/01/10 14:15:45;;;;;;;;;;;8.40;85.50;;;;;;5015108;28;19914;-32
2023/01/10 14:18:18;;;;;;;;;;;8.40;85.30;;;;;;5015151;28;19913;-28
2023/01/10 14:20:43;;;;;;;;;;;8.40;85.20;;;;;;5014967;28;20004;-29
2023/01/10 14:23:15;;;;;;;;;;;8.40;85.10;;;;;;5014831;28;19952;-32
2023/01/10 14:25:41;;;;;;;;;;;8.40;85.00;;;;;;5014729;28;20105;-28
2023/01/10 14:28:27;;;;;;;;;;;8.40;84.90;;;;;;5015028;28;19936;-40
2023/01/10 14:31:00;;;;;;;;;;;8.40;84.80;;;;;;5014828;28;20381;-29
2023/01/10 14:33:26;;;;;;;;;;;8.40;84.70;;;;;;5014282;28;20426;-28
2023/01/10 14:35:54;;;;;;;;;;;8.40;84.90;;;;;;5014555;28;19913;-30
2023/01/10 14:38:25;;;;;;;;;;;8.50;85.00;;;;;;5014770;28;19936;-28
2023/01/10 14:40:51;;;;;;;;;;;8.40;85.10;;;;;;5014299;28;19914;-29
2023/01/10 14:43:18;;;;;;;;;;;8.50;85.10;;;;;;5014672;28;19913;-29
2023/01/10 14:45:44;;;;;;;;;;;8.50;85.10;;;;;;5014611;28;19917;-33
2023/01/10 14:48:26;;;;;;;;;;;8.50;85.60;;;;;;5014579;28;19976;-31
2023/01/10 14:50:53;;;;;;;;;;;8.50;84.90;;;;;;5014191;28;19917;-29
2023/01/10 14:53:28;;;;;;;;;;;8.50;85.00;;;;;;5014354;28;19914;-29